createdAt,value
2019-05-03T00:02:36.000Z,11.68
2019-05-03T00:05:09.286Z,11.75
2019-05-03T00:07:38.712Z,11.69
2019-05-03T00:10:08.549Z,11.78
2019-05-03T00:12:37.978Z,11.76
2019-05-03T00:15:18.763Z,11.75
2019-05-03T00:17:48.390Z,11.74
2019-05-03T00:20:17.790Z,11.74
2019-05-03T00:22:47.300Z,11.76
2019-05-03T00:25:16.698Z,11.74
2019-05-03T00:27:46.125Z,11.73
2019-05-03T00:30:15.692Z,11.70
2019-05-03T00:32:45.115Z,11.71
2019-05-03T00:35:31.948Z,11.75
2019-05-03T00:38:03.005Z,11.70
2019-05-03T00:40:32.501Z,11.69
2019-05-03T00:43:02.436Z,11.66
2019-05-03T00:45:31.864Z,11.70
2019-05-03T00:48:01.936Z,11.73
2019-05-03T00:50:32.112Z,11.72
2019-05-03T00:53:02.370Z,11.76
2019-05-03T00:55:32.758Z,11.78
2019-05-03T00:58:02.609Z,11.74
2019-05-03T01:00:32.529Z,11.76
2019-05-03T01:03:02.259Z,11.82
2019-05-03T01:05:33.103Z,11.77
2019-05-03T01:08:02.867Z,11.82
2019-05-03T01:10:33.110Z,11.77
2019-05-03T01:13:02.717Z,11.85
2019-05-03T01:15:39.593Z,11.75
2019-05-03T01:18:12.328Z,11.76
2019-05-03T01:20:42.654Z,11.69
2019-05-03T01:23:12.471Z,11.67
2019-05-03T01:25:42.928Z,11.66
2019-05-03T01:28:12.597Z,11.63
2019-05-03T01:30:42.505Z,11.65
2019-05-03T01:33:12.240Z,11.61
2019-05-03T01:35:42.781Z,11.67
2019-05-03T01:38:12.248Z,11.77
2019-05-03T01:40:41.987Z,11.68
2019-05-03T01:43:11.786Z,11.66
2019-05-03T01:45:42.498Z,11.60
2019-05-03T01:48:16.671Z,11.58
2019-05-03T01:50:47.729Z,11.49
2019-05-03T01:53:24.596Z,11.42
2019-05-03T01:55:54.010Z,11.42
2019-05-03T01:58:24.186Z,11.39
2019-05-03T02:01:02.811Z,11.45
2019-05-03T02:03:34.065Z,11.45
2019-05-03T02:06:03.743Z,11.48
2019-05-03T02:08:33.158Z,11.49
2019-05-03T02:11:02.584Z,11.38
2019-05-03T02:13:32.207Z,11.31
2019-05-03T02:16:02.311Z,11.36
2019-05-03T02:18:31.952Z,11.34
2019-05-03T02:21:01.774Z,11.38
2019-05-03T02:23:31.990Z,11.37
2019-05-03T02:26:03.029Z,11.33
2019-05-03T02:28:32.819Z,11.37
2019-05-03T02:31:03.603Z,11.33
2019-05-03T02:33:33.321Z,11.31
2019-05-03T02:36:03.585Z,11.27
2019-05-03T02:38:34.001Z,11.21
2019-05-03T02:41:03.875Z,11.25
2019-05-03T02:43:36.364Z,11.29
2019-05-03T02:46:25.367Z,11.23
2019-05-03T02:49:02.415Z,11.21
2019-05-03T02:51:31.871Z,11.21
2019-05-03T02:54:01.291Z,11.26
2019-05-03T02:56:30.706Z,11.28
2019-05-03T02:59:00.150Z,11.27
2019-05-03T03:01:30.019Z,11.31
2019-05-03T03:03:59.804Z,11.27
2019-05-03T03:06:31.377Z,11.19
2019-05-03T03:09:00.850Z,11.23
2019-05-03T03:11:35.418Z,11.17
2019-05-03T03:14:05.819Z,11.14
2019-05-03T03:16:36.393Z,11.13
2019-05-03T03:19:06.851Z,11.15
2019-05-03T03:21:40.863Z,11.10
2019-05-03T03:24:16.912Z,11.15
2019-05-03T03:26:47.755Z,11.10
2019-05-03T03:29:18.737Z,11.06
2019-05-03T03:31:51.214Z,11.01
2019-05-03T03:34:28.015Z,10.99
2019-05-03T03:37:03.799Z,10.88
2019-05-03T03:39:27.884Z,10.89
2019-05-03T03:41:58.546Z,10.81
2019-05-03T03:44:28.263Z,10.78
2019-05-03T03:47:00.077Z,10.70
2019-05-03T03:49:31.933Z,10.55
2019-05-03T03:52:06.169Z,10.46
2019-05-03T03:54:36.409Z,10.35
2019-05-03T03:57:08.170Z,10.27
2019-05-03T03:59:37.171Z,10.18
2019-05-03T04:02:06.718Z,10.10
2019-05-03T04:04:36.378Z,10.02
2019-05-03T04:07:06.983Z,9.86
2019-05-03T04:09:36.909Z,9.79
2019-05-03T04:12:06.762Z,9.72
2019-05-03T04:14:56.267Z,9.65
2019-05-03T04:17:27.716Z,9.54
2019-05-03T04:19:59.110Z,9.42
2019-05-03T04:22:28.641Z,9.35
2019-05-03T04:24:58.089Z,9.33
2019-05-03T04:27:27.994Z,9.28
2019-05-03T04:29:57.543Z,9.23
2019-05-03T04:32:28.941Z,9.21
2019-05-03T04:34:58.043Z,9.15
2019-05-03T04:37:27.478Z,9.09
2019-05-03T04:39:56.884Z,9.04
2019-05-03T04:42:26.381Z,9.01
2019-05-03T04:44:56.505Z,8.96
2019-05-03T04:47:26.719Z,8.94
2019-05-03T04:49:56.304Z,9.04
2019-05-03T04:52:26.182Z,9.01
2019-05-03T04:54:59.859Z,9.04
2019-05-03T04:57:39.847Z,9.09
2019-05-03T05:00:00.354Z,9.12
2019-05-03T05:02:31.335Z,9.20
2019-05-03T05:05:00.752Z,9.30
2019-05-03T05:07:30.155Z,9.35
2019-05-03T05:09:59.588Z,9.39
2019-05-03T05:12:29.006Z,9.54
2019-05-03T05:14:58.436Z,9.67
2019-05-03T05:17:35.683Z,9.83
2019-05-03T05:20:14.629Z,9.93
2019-05-03T05:22:45.410Z,10.07
2019-05-03T05:25:16.770Z,10.27
2019-05-03T05:28:04.771Z,10.48
2019-05-03T05:30:35.305Z,10.65
2019-05-03T05:33:06.484Z,10.95
2019-05-03T05:35:35.901Z,11.13
2019-05-03T05:38:05.338Z,11.42
2019-05-03T05:40:35.030Z,11.53
2019-05-03T05:43:05.106Z,11.72
2019-05-03T05:45:34.961Z,11.60
2019-05-03T05:48:06.044Z,11.58
2019-05-03T05:50:37.108Z,11.50
2019-05-03T05:53:06.537Z,11.54
2019-05-03T05:55:54.972Z,11.47
2019-05-03T05:58:28.894Z,11.42
2019-05-03T06:00:59.949Z,11.28
2019-05-03T06:03:29.371Z,11.60
2019-05-03T06:06:00.436Z,12.11
2019-05-03T06:08:44.684Z,12.48
2019-05-03T06:11:15.938Z,12.97
2019-05-03T06:13:46.977Z,13.48
2019-05-03T06:16:34.881Z,13.79
2019-05-03T06:19:15.324Z,13.82
2019-05-03T06:21:55.690Z,14.02
2019-05-03T06:24:29.641Z,14.13
2019-05-03T06:27:15.213Z,14.27
2019-05-03T06:29:45.681Z,14.47
2019-05-03T06:32:25.388Z,14.83
2019-05-03T06:34:54.950Z,15.04
2019-05-03T06:37:31.938Z,15.24
2019-05-03T06:40:01.368Z,15.33
2019-05-03T06:42:30.764Z,15.40
2019-05-03T06:45:08.247Z,15.50
2019-05-03T06:47:31.304Z,15.78
2019-05-03T06:50:00.820Z,16.92
2019-05-03T06:52:30.244Z,18.74
2019-05-03T06:55:00.309Z,20.03
2019-05-03T06:57:30.837Z,21.05
2019-05-03T07:00:17.315Z,20.77
2019-05-03T07:02:48.352Z,22.16
2019-05-03T07:05:28.457Z,22.50
2019-05-03T07:07:59.496Z,22.38
2019-05-03T07:10:35.121Z,22.64
2019-05-03T07:13:08.602Z,23.81
2019-05-03T07:15:36.497Z,22.89
2019-05-03T07:18:05.987Z,21.10
2019-05-03T07:20:44.616Z,20.06
2019-05-03T07:23:15.626Z,19.80
2019-05-03T07:25:45.147Z,19.78
2019-05-03T07:28:15.137Z,19.03
2019-05-03T07:30:45.405Z,18.08
2019-05-03T07:33:32.065Z,17.82
2019-05-03T07:36:01.536Z,17.45
2019-05-03T07:38:30.951Z,16.62
2019-05-03T07:41:00.383Z,16.59
2019-05-03T07:43:29.792Z,16.77
2019-05-03T07:45:59.206Z,16.69
2019-05-03T07:48:28.637Z,16.41
2019-05-03T07:50:58.055Z,16.05
2019-05-03T07:53:27.467Z,15.66
2019-05-03T07:56:05.198Z,15.45
2019-05-03T07:58:39.783Z,15.27
2019-05-03T08:01:10.925Z,15.04
2019-05-03T08:03:40.343Z,15.04
2019-05-03T08:06:09.786Z,14.99
2019-05-03T08:08:39.184Z,15.23
2019-05-03T08:11:08.603Z,15.97
2019-05-03T08:13:38.011Z,17.08
2019-05-03T08:16:07.442Z,18.01
2019-05-03T08:18:36.853Z,18.57
2019-05-03T08:21:06.375Z,19.18
2019-05-03T08:23:35.782Z,19.89
2019-05-03T08:26:05.944Z,20.61
2019-05-03T08:28:35.551Z,21.41
2019-05-03T08:31:09.846Z,22.08
2019-05-03T08:33:40.895Z,23.18
2019-05-03T08:36:10.376Z,23.95
2019-05-03T08:38:39.774Z,25.23
2019-05-03T08:41:10.834Z,25.82
2019-05-03T08:43:40.264Z,24.64
2019-05-03T08:46:09.676Z,24.03
2019-05-03T08:48:39.169Z,23.24
2019-05-03T08:51:08.594Z,22.71
2019-05-03T08:53:37.991Z,21.31
2019-05-03T08:56:07.386Z,22.63
2019-05-03T08:58:36.898Z,24.80
2019-05-03T09:01:06.730Z,27.33
2019-05-03T09:03:38.314Z,27.23
2019-05-03T09:06:07.345Z,28.97
2019-05-03T09:08:36.781Z,29.77
2019-05-03T09:11:10.924Z,27.91
2019-05-03T09:13:57.190Z,27.04
2019-05-03T09:16:26.603Z,24.71
2019-05-03T09:18:56.061Z,22.05
2019-05-03T09:21:25.695Z,22.78
2019-05-03T09:23:55.526Z,25.48
2019-05-03T09:26:29.111Z,24.62
2019-05-03T09:28:56.271Z,24.67
2019-05-03T09:31:25.657Z,24.30
2019-05-03T09:33:55.175Z,23.13
2019-05-03T09:36:25.274Z,22.44
2019-05-03T09:38:55.159Z,22.11
2019-05-03T09:41:25.652Z,22.28
2019-05-03T09:43:55.591Z,24.78
2019-05-03T09:46:26.394Z,28.29
2019-05-03T09:49:03.329Z,30.21
2019-05-03T09:51:27.265Z,32.77
2019-05-03T09:54:01.228Z,33.65
2019-05-03T09:56:55.869Z,32.62
2019-05-03T09:59:19.248Z,30.49
2019-05-03T10:01:48.659Z,32.21
2019-05-03T10:04:18.221Z,32.58
2019-05-03T10:06:47.650Z,33.35
2019-05-03T10:09:17.127Z,34.55
2019-05-03T10:11:46.625Z,34.82
2019-05-03T10:14:16.115Z,34.53
2019-05-03T10:16:47.158Z,34.48
2019-05-03T10:19:16.578Z,33.28
2019-05-03T10:21:47.848Z,33.37
2019-05-03T10:24:17.299Z,31.18
2019-05-03T10:26:46.686Z,30.17
2019-05-03T10:29:16.104Z,29.30
2019-05-03T10:31:59.117Z,28.94
2019-05-03T10:34:28.529Z,29.35
2019-05-03T10:36:57.928Z,29.92
2019-05-03T10:39:27.369Z,32.13
2019-05-03T10:41:56.754Z,34.53
2019-05-03T10:44:26.172Z,35.68
2019-05-03T10:46:56.002Z,34.47
2019-05-03T10:49:25.591Z,31.21
2019-05-03T10:51:56.629Z,29.33
2019-05-03T10:57:10.966Z,31.50
2019-05-03T10:59:40.418Z,33.11
2019-05-03T11:02:11.459Z,32.95
2019-05-03T11:04:43.537Z,32.29
2019-05-03T11:07:11.962Z,30.65
2019-05-03T11:09:49.571Z,27.73
2019-05-03T11:12:14.672Z,25.56
2019-05-03T11:14:45.386Z,24.04
2019-05-03T11:17:15.014Z,22.84
2019-05-03T11:19:45.395Z,21.80
2019-05-03T11:22:14.996Z,21.02
2019-05-03T11:24:45.384Z,20.46
2019-05-03T11:27:19.771Z,20.10
2019-05-03T11:29:49.188Z,20.07
2019-05-03T11:32:22.934Z,20.16
2019-05-03T11:35:11.564Z,20.15
2019-05-03T11:37:41.872Z,20.00
2019-05-03T11:40:11.453Z,20.06
2019-05-03T11:42:40.924Z,21.00
2019-05-03T11:45:11.381Z,23.20
2019-05-03T11:47:40.784Z,24.00
2019-05-03T11:50:10.622Z,23.47
2019-05-03T11:52:40.005Z,22.84
2019-05-03T11:55:11.648Z,22.10
2019-05-03T11:57:40.509Z,21.27
2019-05-03T12:00:12.409Z,20.58
2019-05-03T12:02:45.248Z,20.26
2019-05-03T12:05:19.452Z,20.04
2019-05-03T12:07:48.869Z,19.82
2019-05-03T12:10:32.192Z,19.85
2019-05-03T12:12:57.406Z,19.69
2019-05-03T12:15:26.829Z,19.70
2019-05-03T12:17:59.239Z,19.77
2019-05-03T12:20:30.666Z,19.93
2019-05-03T12:23:00.691Z,20.01
2019-05-03T12:25:31.254Z,19.81
2019-05-03T12:28:01.031Z,19.52
2019-05-03T12:30:30.449Z,19.26
2019-05-03T12:32:59.863Z,19.08
2019-05-03T12:35:29.270Z,18.85
2019-05-03T12:37:58.675Z,18.69
2019-05-03T12:40:28.103Z,18.70
2019-05-03T12:42:57.504Z,18.62
2019-05-03T12:45:26.942Z,18.65
2019-05-03T12:47:56.337Z,18.74
2019-05-03T12:50:25.768Z,18.89
2019-05-03T12:52:55.597Z,18.92
2019-05-03T12:55:25.200Z,19.22
2019-05-03T12:57:55.563Z,19.42
2019-05-03T13:00:29.726Z,19.95
2019-05-03T13:03:00.771Z,20.62
2019-05-03T13:05:30.751Z,21.32
2019-05-03T13:08:23.128Z,21.61
2019-05-03T13:10:52.719Z,21.76
2019-05-03T13:13:22.120Z,21.54
2019-05-03T13:15:51.538Z,21.42
2019-05-03T13:18:20.937Z,21.29
2019-05-03T13:20:50.366Z,20.93
2019-05-03T13:23:19.762Z,21.18
2019-05-03T13:25:49.185Z,21.54
2019-05-03T13:28:18.579Z,21.84
2019-05-03T13:30:48.070Z,21.82
2019-05-03T13:33:17.461Z,21.80
2019-05-03T13:35:46.874Z,21.61
2019-05-03T13:38:16.292Z,20.91
2019-05-03T13:40:46.270Z,20.50
2019-05-03T13:43:15.674Z,20.47
2019-05-03T13:45:45.210Z,20.47
2019-05-03T13:48:16.833Z,20.42
2019-05-03T13:50:45.851Z,19.84
2019-05-03T13:53:16.127Z,19.70
2019-05-03T13:55:45.688Z,19.45
2019-05-03T13:58:15.087Z,19.41
2019-05-03T14:00:45.359Z,19.36
2019-05-03T14:03:15.381Z,19.32
2019-05-03T14:05:44.941Z,19.19
2019-05-03T14:08:15.673Z,19.13
2019-05-03T14:10:45.737Z,19.19
2019-05-03T14:13:15.205Z,19.45
2019-05-03T14:15:45.319Z,19.66
2019-05-03T14:18:15.356Z,19.53
2019-05-03T14:20:46.433Z,19.34
2019-05-03T14:23:15.866Z,19.45
2019-05-03T14:25:45.272Z,19.22
2019-05-03T14:28:14.723Z,19.20
2019-05-03T14:30:45.531Z,18.85
2019-05-03T14:33:14.936Z,18.68
2019-05-03T14:35:45.605Z,18.62
2019-05-03T14:38:15.259Z,18.37
2019-05-03T14:40:44.964Z,18.33
2019-05-03T14:43:15.822Z,18.44
2019-05-03T14:45:45.223Z,18.36
2019-05-03T14:48:15.241Z,18.19
2019-05-03T14:50:45.568Z,18.36
2019-05-03T14:53:15.107Z,18.32
2019-05-03T14:55:46.139Z,18.24
2019-05-03T14:58:35.359Z,18.24
2019-05-03T15:01:09.179Z,18.16
2019-05-03T15:03:38.651Z,17.95
2019-05-03T15:06:08.042Z,18.00
2019-05-03T15:08:37.466Z,17.87
2019-05-03T15:11:06.877Z,17.72
2019-05-03T15:13:36.284Z,17.68
2019-05-03T15:16:05.701Z,17.59
2019-05-03T15:18:35.118Z,17.60
2019-05-03T15:21:05.502Z,17.71
2019-05-03T15:23:35.076Z,17.55
2019-05-03T15:26:05.133Z,17.45
2019-05-03T15:28:35.595Z,17.39
2019-05-03T15:31:05.403Z,17.23
2019-05-03T15:33:35.378Z,17.12
2019-05-03T15:36:05.282Z,17.10
2019-05-03T15:38:34.832Z,17.02
2019-05-03T15:41:05.406Z,17.00
2019-05-03T15:43:45.509Z,17.03
2019-05-03T15:46:19.445Z,17.00
2019-05-03T15:48:50.510Z,17.04
2019-05-03T15:51:19.909Z,17.12
2019-05-03T15:53:49.329Z,17.09
2019-05-03T15:56:20.038Z,17.21
2019-05-03T15:58:49.476Z,17.16
2019-05-03T16:01:18.897Z,17.21
2019-05-03T16:03:48.316Z,17.27
2019-05-03T16:06:17.714Z,17.28
2019-05-03T16:08:47.195Z,17.25
2019-05-03T16:11:17.260Z,17.20
2019-05-03T16:13:46.716Z,17.17
2019-05-03T16:16:16.124Z,17.09
2019-05-03T16:18:45.579Z,16.93
2019-05-03T16:21:14.996Z,16.82
2019-05-03T16:23:46.389Z,16.61
2019-05-03T16:26:15.561Z,16.48
2019-05-03T16:28:46.656Z,16.38
2019-05-03T16:31:17.756Z,16.23
2019-05-03T16:33:47.176Z,16.10
2019-05-03T16:36:16.578Z,15.83
2019-05-03T16:38:45.994Z,15.57
2019-05-03T16:41:17.667Z,15.47
2019-05-03T16:43:46.510Z,15.24
2019-05-03T16:46:15.963Z,15.09
2019-05-03T16:48:45.389Z,15.01
2019-05-03T16:51:17.172Z,14.89
2019-05-03T16:53:46.060Z,14.75
2019-05-03T16:56:17.151Z,14.59
2019-05-03T16:58:46.752Z,14.60
2019-05-03T17:01:18.177Z,14.57
2019-05-03T17:03:48.916Z,14.57
2019-05-03T17:06:26.585Z,14.64
2019-05-03T17:09:00.471Z,14.60
2019-05-03T17:11:29.951Z,14.62
2019-05-03T17:13:59.368Z,14.62
2019-05-03T17:16:28.764Z,14.44
2019-05-03T17:18:58.178Z,14.40
2019-05-03T17:21:27.725Z,14.41
2019-05-03T17:23:57.130Z,14.39
2019-05-03T17:26:26.530Z,14.36
2019-05-03T17:28:55.954Z,14.33
2019-05-03T17:31:25.346Z,14.34
2019-05-03T17:33:56.781Z,14.28
2019-05-03T17:36:25.900Z,14.23
2019-05-03T17:38:56.956Z,14.27
2019-05-03T17:41:34.754Z,14.22
2019-05-03T17:44:05.922Z,14.09
2019-05-03T17:46:35.375Z,14.02
2019-05-03T17:49:05.245Z,13.98
2019-05-03T17:51:42.603Z,13.93
2019-05-03T17:54:16.520Z,13.83
2019-05-03T17:57:04.473Z,13.78
2019-05-03T17:59:38.266Z,13.81
2019-05-03T18:02:25.275Z,13.87
2019-05-03T18:05:12.261Z,13.90
2019-05-03T18:07:45.255Z,13.90
2019-05-03T18:10:15.176Z,13.87
2019-05-03T18:12:45.363Z,13.86
2019-05-03T18:15:15.055Z,13.85
2019-05-03T18:17:44.529Z,13.75
2019-05-03T18:20:15.064Z,13.67
2019-05-03T18:22:44.527Z,13.63
2019-05-03T18:25:15.535Z,13.64
2019-05-03T18:27:44.935Z,13.60
2019-05-03T18:30:14.783Z,13.67
2019-05-03T18:32:45.238Z,13.77
2019-05-03T18:35:15.314Z,13.82
2019-05-03T18:37:46.431Z,13.80
2019-05-03T18:40:15.843Z,13.73
2019-05-03T18:43:04.494Z,13.64
2019-05-03T18:45:35.753Z,13.60
2019-05-03T18:48:05.166Z,13.61
2019-05-03T18:50:35.084Z,13.52
2019-05-03T18:53:04.831Z,13.42
2019-05-03T18:55:34.469Z,13.34
2019-05-03T18:58:04.382Z,13.39
2019-05-03T19:00:35.111Z,13.36
2019-05-03T19:03:04.983Z,13.32
2019-05-03T19:05:36.040Z,13.28
2019-05-03T19:08:19.033Z,13.19
2019-05-03T19:11:06.074Z,13.20
2019-05-03T19:13:37.112Z,13.10
2019-05-03T19:16:08.165Z,13.01
2019-05-03T19:18:39.280Z,12.94
2019-05-03T19:21:08.718Z,12.94
2019-05-03T19:23:38.136Z,12.87
2019-05-03T19:26:07.610Z,12.76
2019-05-03T19:28:37.162Z,12.74
2019-05-03T19:31:06.802Z,12.62
2019-05-03T19:33:37.292Z,12.58
2019-05-03T19:36:06.834Z,12.64
2019-05-03T19:38:36.352Z,12.58
2019-05-03T19:41:05.826Z,12.57
2019-05-03T19:43:35.514Z,12.47
2019-05-03T19:46:07.378Z,12.47
2019-05-03T19:48:36.362Z,12.46
2019-05-03T19:51:05.934Z,12.43
2019-05-03T19:53:39.689Z,12.38
2019-05-03T19:56:11.287Z,12.31
2019-05-03T19:58:40.697Z,12.25
2019-05-03T20:01:26.566Z,12.23
2019-05-03T20:03:57.620Z,12.20
2019-05-03T20:06:45.216Z,12.17
2019-05-03T20:09:25.462Z,12.14
2019-05-03T20:11:55.290Z,12.12
2019-05-03T20:14:25.716Z,12.04
2019-05-03T20:16:55.295Z,11.99
2019-05-03T20:19:25.664Z,11.94
2019-05-03T20:21:56.686Z,11.95
2019-05-03T20:24:26.209Z,11.90
2019-05-03T20:26:55.603Z,11.88
2019-05-03T20:29:25.190Z,11.93
2019-05-03T20:31:55.215Z,11.89
2019-05-03T20:34:25.031Z,11.87
2019-05-03T20:36:54.878Z,11.81
2019-05-03T20:39:25.456Z,11.77
2019-05-03T20:41:55.243Z,11.77
2019-05-03T20:44:26.418Z,11.78
2019-05-03T20:46:57.476Z,11.72
2019-05-03T20:49:26.890Z,11.66
2019-05-03T20:51:56.300Z,11.62
2019-05-03T20:54:25.737Z,11.56
2019-05-03T20:56:55.164Z,11.52
2019-05-03T20:59:25.286Z,11.49
2019-05-03T21:01:54.754Z,11.38
2019-05-03T21:04:24.681Z,11.30
2019-05-03T21:06:55.224Z,11.19
2019-05-03T21:09:24.697Z,11.13
2019-05-03T21:11:55.183Z,11.08
2019-05-03T21:14:24.709Z,11.01
2019-05-03T21:17:04.630Z,10.95
2019-05-03T21:19:38.168Z,11.01
2019-05-03T21:22:09.213Z,11.09
2019-05-03T21:24:43.082Z,11.17
2019-05-03T21:27:12.488Z,11.23
2019-05-03T21:30:01.032Z,11.19
2019-05-03T21:32:30.448Z,11.18
2019-05-03T21:34:59.963Z,11.19
2019-05-03T21:37:29.380Z,11.21
2019-05-03T21:39:58.804Z,11.17
2019-05-03T21:42:28.212Z,11.16
2019-05-03T21:44:57.635Z,11.10
2019-05-03T21:47:28.676Z,11.07
2019-05-03T21:49:59.864Z,11.07
2019-05-03T21:52:29.272Z,11.04
2019-05-03T21:54:58.668Z,11.05
2019-05-03T21:57:28.178Z,11.02
2019-05-03T21:59:57.658Z,11.00
2019-05-03T22:02:27.071Z,11.01
2019-05-03T22:04:56.476Z,11.06
2019-05-03T22:07:26.844Z,11.04
2019-05-03T22:09:56.256Z,11.04
2019-05-03T22:12:25.678Z,11.05
2019-05-03T22:14:56.719Z,11.07
2019-05-03T22:17:44.741Z,11.09
2019-05-03T22:20:24.809Z,11.12
2019-05-03T22:22:55.876Z,11.11
2019-05-03T22:25:26.905Z,11.12
2019-05-03T22:27:56.355Z,11.14
2019-05-03T22:30:26.828Z,11.15
2019-05-03T22:32:56.415Z,11.14
2019-05-03T22:35:25.811Z,11.16
2019-05-03T22:37:55.223Z,11.20
2019-05-03T22:40:25.159Z,11.18
2019-05-03T22:42:54.636Z,11.13
2019-05-03T22:45:24.061Z,11.06
2019-05-03T22:47:54.975Z,11.06
2019-05-03T22:50:25.476Z,10.99
2019-05-03T22:52:55.142Z,10.89
2019-05-03T22:55:24.783Z,10.93
2019-05-03T22:57:54.649Z,10.88
2019-05-03T23:00:25.189Z,10.89
2019-05-03T23:02:54.905Z,10.88
2019-05-03T23:05:24.307Z,10.88
2019-05-03T23:07:55.241Z,10.84
2019-05-03T23:10:25.690Z,10.81
2019-05-03T23:12:55.247Z,10.75
2019-05-03T23:15:24.673Z,10.71
2019-05-03T23:17:54.533Z,10.76
2019-05-03T23:20:42.170Z,10.65
2019-05-03T23:23:14.463Z,10.64
2019-05-03T23:25:44.901Z,10.60
2019-05-03T23:28:14.564Z,10.59
2019-05-03T23:30:43.959Z,10.57
2019-05-03T23:33:14.531Z,10.57
2019-05-03T23:35:44.497Z,10.54
2019-05-03T23:38:15.149Z,10.49
2019-05-03T23:40:44.785Z,10.51
2019-05-03T23:43:14.492Z,10.46
2019-05-03T23:45:45.284Z,10.43
2019-05-03T23:48:14.986Z,10.42
2019-05-03T23:50:44.621Z,10.44
2019-05-03T23:53:15.382Z,10.46
2019-05-03T23:55:46.566Z,10.48
2019-05-03T23:58:15.979Z,10.45
